Aviation Digital Data Service (ADDS)

Output produced by METARs form (0742 UTC 24 May 2018)
found at http://www.aviationweather.gov/adds/metars/
 
TAF TBPB 240500Z 2406/2506 09016KT 9999 SCT020